createdAt,value
2023-01-03T00:00:02.081Z,0.70
2023-01-03T00:05:04.117Z,0.80
2023-01-03T00:10:09.101Z,0.85
2023-01-03T00:15:11.260Z,0.70
2023-01-03T00:20:13.265Z,0.60
2023-01-03T00:25:15.394Z,0.80
2023-01-03T00:30:17.136Z,0.80
2023-01-03T00:35:18.765Z,0.60
2023-01-03T00:40:20.404Z,0.70
2023-01-03T00:45:25.445Z,0.80
2023-01-03T00:50:27.518Z,0.90
2023-01-03T00:55:29.169Z,0.80
2023-01-03T01:00:30.827Z,0.50
2023-01-03T01:05:32.523Z,0.70
2023-01-03T01:10:34.301Z,0.73
2023-01-03T01:15:36.000Z,0.60
2023-01-03T01:20:39.764Z,0.63
2023-01-03T01:25:41.398Z,0.60
2023-01-03T01:30:43.108Z,0.60
2023-01-03T01:35:44.806Z,0.70
2023-01-03T01:40:46.785Z,0.75
2023-01-03T01:45:48.655Z,0.90
2023-01-03T01:50:54.786Z,0.90
2023-01-03T01:56:03.546Z,0.82
2023-01-03T02:01:09.149Z,0.90
2023-01-03T02:06:14.326Z,0.90
2023-01-03T02:11:47.996Z,0.90
2023-01-03T02:17:11.849Z,0.85
2023-01-03T02:22:47.511Z,0.90
2023-01-03T02:27:58.203Z,1.25
2023-01-03T02:33:20.867Z,0.95
2023-01-03T02:38:31.527Z,0.98
2023-01-03T02:43:42.629Z,0.95
2023-01-03T02:48:55.390Z,0.80
2023-01-03T02:53:59.731Z,0.90
2023-01-03T02:59:08.704Z,0.80
2023-01-03T03:04:12.220Z,1.00
2023-01-03T03:09:13.953Z,0.80
2023-01-03T03:14:28.771Z,1.15
2023-01-03T03:19:52.088Z,0.90
2023-01-03T03:24:57.082Z,0.70
2023-01-03T03:30:02.740Z,0.90
2023-01-03T03:35:09.241Z,1.20
2023-01-03T03:40:30.125Z,0.90
2023-01-03T03:45:41.651Z,0.80
2023-01-03T03:50:54.006Z,1.05
2023-01-03T03:56:07.411Z,0.88
2023-01-03T04:01:12.477Z,0.88
2023-01-03T04:06:31.005Z,1.00
2023-01-03T04:11:32.750Z,0.68
2023-01-03T04:16:34.509Z,0.85
2023-01-03T04:21:36.755Z,0.90
2023-01-03T04:26:38.462Z,0.90
2023-01-03T04:31:40.616Z,0.90
2023-01-03T04:36:42.251Z,1.00
2023-01-03T04:41:43.879Z,0.80
2023-01-03T04:46:52.301Z,0.70
2023-01-03T04:51:54.563Z,0.90
2023-01-03T04:56:56.206Z,0.90
2023-01-03T05:01:58.050Z,0.80
2023-01-03T05:06:59.877Z,0.98
2023-01-03T05:12:01.582Z,1.08
2023-01-03T05:17:03.295Z,0.77
2023-01-03T05:22:23.708Z,0.70
2023-01-03T05:27:25.376Z,0.90
2023-01-03T05:32:29.105Z,0.88
2023-01-03T05:37:30.705Z,0.77
2023-01-03T05:42:32.395Z,0.70
2023-01-03T05:47:34.017Z,0.93
2023-01-03T05:52:35.775Z,1.20
2023-01-03T05:57:37.561Z,0.80
2023-01-03T06:02:39.402Z,1.25
2023-01-03T06:07:41.060Z,1.00
2023-01-03T06:12:42.703Z,1.13
2023-01-03T06:17:58.227Z,1.20
2023-01-03T06:23:00.026Z,1.10
2023-01-03T06:28:01.782Z,1.25
2023-01-03T06:33:03.406Z,1.30
2023-01-03T06:38:05.114Z,1.60
2023-01-03T06:43:06.812Z,1.40
2023-01-03T06:48:28.486Z,1.50
2023-01-03T06:53:36.671Z,1.60
2023-01-03T06:58:38.595Z,1.60
2023-01-03T07:03:40.541Z,1.55
2023-01-03T07:08:47.862Z,1.67
2023-01-03T07:13:59.824Z,1.75
2023-01-03T07:19:02.347Z,2.20
2023-01-03T07:24:05.800Z,1.90
2023-01-03T07:29:09.555Z,2.03
2023-01-03T07:34:11.229Z,2.10
2023-01-03T07:39:12.833Z,1.88
2023-01-03T07:44:14.443Z,2.00
2023-01-03T07:49:16.104Z,2.05
2023-01-03T07:54:17.759Z,2.72
2023-01-03T07:59:19.518Z,1.98
2023-01-03T08:04:21.239Z,2.33
2023-01-03T08:09:41.455Z,2.13
2023-01-03T08:14:43.077Z,2.53
2023-01-03T08:19:45.948Z,2.78
2023-01-03T08:24:47.866Z,2.85
2023-01-03T08:29:49.579Z,2.50
2023-01-03T08:34:51.504Z,2.42
2023-01-03T08:40:01.528Z,2.25
2023-01-03T08:45:09.277Z,2.00
2023-01-03T08:50:12.741Z,1.85
2023-01-03T08:55:14.595Z,1.92
2023-01-03T09:00:16.439Z,1.80
2023-01-03T09:05:18.219Z,2.20
2023-01-03T09:10:20.027Z,1.88
2023-01-03T09:15:22.669Z,1.80
2023-01-03T09:20:24.384Z,2.30
2023-01-03T09:25:25.949Z,1.88
2023-01-03T09:30:27.638Z,1.90
2023-01-03T09:35:29.294Z,1.90
2023-01-03T09:40:36.196Z,1.65
2023-01-03T09:45:39.824Z,1.50
2023-01-03T09:51:14.973Z,1.90
2023-01-03T09:56:25.080Z,1.75
2023-01-03T10:01:51.747Z,2.13
2023-01-03T10:07:23.603Z,1.88
2023-01-03T10:12:43.793Z,1.60
2023-01-03T10:18:17.653Z,1.70
2023-01-03T10:23:19.550Z,1.65
2023-01-03T10:28:27.411Z,1.67
2023-01-03T10:33:42.685Z,1.60
2023-01-03T10:38:51.571Z,1.60
2023-01-03T10:44:00.154Z,1.42
2023-01-03T10:49:28.854Z,1.58
2023-01-03T10:54:46.533Z,1.38
2023-01-03T10:59:51.249Z,1.02
2023-01-03T11:05:13.288Z,1.08
2023-01-03T11:10:19.077Z,0.88
2023-01-03T11:15:38.273Z,1.30
2023-01-03T11:21:01.647Z,0.90
2023-01-03T11:26:33.780Z,1.25
2023-01-03T11:31:51.258Z,0.80
2023-01-03T11:37:00.596Z,0.80
2023-01-03T11:42:25.826Z,0.80
2023-01-03T11:47:27.355Z,1.08
2023-01-03T11:52:29.520Z,0.77
2023-01-03T11:57:46.915Z,0.40
2023-01-03T12:03:26.281Z,0.90
2023-01-03T12:09:13.075Z,0.60
2023-01-03T12:14:24.086Z,0.68
2023-01-03T12:19:28.627Z,0.50
2023-01-03T12:24:42.843Z,0.50
2023-01-03T12:29:49.136Z,0.77
2023-01-03T12:35:00.802Z,1.00
2023-01-03T12:40:14.756Z,0.80
2023-01-03T12:45:44.918Z,0.50
2023-01-03T12:50:52.087Z,0.60
2023-01-03T13:01:05.041Z,0.50
2023-01-03T13:06:13.959Z,0.68
2023-01-03T13:11:28.925Z,0.80
2023-01-03T13:16:36.627Z,1.10
2023-01-03T13:21:53.430Z,0.60
2023-01-03T13:27:20.465Z,1.00
2023-01-03T13:32:22.035Z,0.80
2023-01-03T13:37:46.396Z,0.70
2023-01-03T13:42:49.359Z,0.52
2023-01-03T13:47:53.932Z,0.63
2023-01-03T13:53:04.045Z,0.82
2023-01-03T13:58:24.227Z,0.73
2023-01-03T14:03:59.938Z,0.80
2023-01-03T14:09:24.381Z,0.73
2023-01-03T14:14:30.755Z,0.50
2023-01-03T14:19:35.724Z,0.50
2023-01-03T14:24:51.714Z,0.60
2023-01-03T14:29:55.394Z,0.80
2023-01-03T14:34:57.089Z,0.70
2023-01-03T14:40:19.711Z,0.60
2023-01-03T14:45:21.517Z,0.60
2023-01-03T14:50:27.826Z,0.90
2023-01-03T14:55:32.867Z,1.00
2023-01-03T15:00:36.407Z,1.08
2023-01-03T15:05:40.688Z,1.40
2023-01-03T15:10:51.325Z,1.13
2023-01-03T15:15:58.899Z,1.63
2023-01-03T15:21:03.206Z,1.42
2023-01-03T15:26:19.620Z,1.75
2023-01-03T15:31:24.150Z,1.85
2023-01-03T15:36:29.059Z,2.85
2023-01-03T15:42:43.051Z,2.15
2023-01-03T15:47:34.636Z,3.15
2023-01-03T15:52:36.609Z,5.20
2023-01-03T15:57:38.683Z,6.20
2023-01-03T16:02:40.717Z,4.43
2023-01-03T16:07:42.549Z,3.00
2023-01-03T16:12:44.434Z,2.30
2023-01-03T16:17:46.471Z,1.98
2023-01-03T16:23:01.675Z,2.75
2023-01-03T16:28:10.189Z,2.90
2023-01-03T16:33:19.981Z,2.80
2023-01-03T16:38:25.418Z,2.90
2023-01-03T16:43:27.500Z,3.20
2023-01-03T16:48:38.089Z,2.65
2023-01-03T16:53:41.046Z,2.95
2023-01-03T16:58:43.415Z,3.30
2023-01-03T17:03:45.300Z,3.50
2023-01-03T17:08:47.229Z,2.80
2023-01-03T17:13:49.253Z,3.30
2023-01-03T17:18:53.411Z,4.63
2023-01-03T17:24:01.873Z,3.40
2023-01-03T17:29:06.012Z,3.00
2023-01-03T17:34:22.619Z,3.10
2023-01-03T17:39:26.053Z,2.83
2023-01-03T17:44:27.701Z,2.42
2023-01-03T17:49:29.385Z,1.90
2023-01-03T17:54:36.239Z,1.70
2023-01-03T17:59:37.922Z,2.45
2023-01-03T18:05:13.272Z,2.70
2023-01-03T18:10:01.625Z,2.15
2023-01-03T18:15:03.736Z,2.30
2023-01-03T18:20:06.503Z,2.45
2023-01-03T18:25:23.560Z,2.35
2023-01-03T18:35:33.897Z,1.83
2023-01-03T18:40:39.574Z,2.50
2023-01-03T18:45:42.012Z,2.08
2023-01-03T18:50:45.583Z,2.13
2023-01-03T18:55:48.513Z,2.25
2023-01-03T19:00:50.199Z,2.10
2023-01-03T19:05:55.201Z,2.00
2023-01-03T19:11:06.124Z,2.17
2023-01-03T19:16:07.952Z,2.10
2023-01-03T19:21:13.187Z,2.03
2023-01-03T19:26:29.029Z,1.90
2023-01-03T19:31:42.579Z,3.05
2023-01-03T19:36:45.376Z,2.92
2023-01-03T19:42:16.734Z,2.75
2023-01-03T19:47:20.593Z,2.55
2023-01-03T19:52:22.386Z,2.20
2023-01-03T19:57:30.182Z,1.70
2023-01-03T20:02:40.944Z,2.30
2023-01-03T20:07:43.857Z,2.00
2023-01-03T20:12:46.732Z,1.90
2023-01-03T20:17:48.601Z,1.92
2023-01-03T20:23:06.327Z,1.88
2023-01-03T20:28:16.884Z,1.80
2023-01-03T20:33:18.555Z,1.63
2023-01-03T20:38:27.372Z,2.00
2023-01-03T20:43:29.292Z,1.80
2023-01-03T20:48:31.078Z,1.60
2023-01-03T20:53:32.723Z,1.90
2023-01-03T20:58:34.370Z,1.67
2023-01-03T21:03:37.966Z,1.50
2023-01-03T21:08:54.661Z,1.80
2023-01-03T21:13:58.477Z,1.63
2023-01-03T21:19:16.238Z,1.55
2023-01-03T21:24:20.216Z,1.70
2023-01-03T21:29:22.116Z,1.17
2023-01-03T21:34:23.863Z,1.50
2023-01-03T21:39:25.720Z,1.30
2023-01-03T21:44:27.430Z,1.20
2023-01-03T21:49:29.267Z,1.52
2023-01-03T21:54:30.897Z,1.98
2023-01-03T21:59:32.645Z,1.70
2023-01-03T22:04:34.645Z,1.75
2023-01-03T22:09:55.011Z,1.70
2023-01-03T22:14:56.827Z,1.02
2023-01-03T22:19:58.497Z,1.40
2023-01-03T22:25:00.129Z,1.25
2023-01-03T22:30:03.188Z,1.35
2023-01-03T22:35:05.109Z,1.30
2023-01-03T22:40:08.969Z,1.17
2023-01-03T22:45:10.915Z,1.20
2023-01-03T22:50:12.654Z,1.10
2023-01-03T22:55:14.336Z,1.35
2023-01-03T23:00:16.187Z,1.20
2023-01-03T23:05:18.066Z,1.63
2023-01-03T23:10:19.762Z,1.83
2023-01-03T23:15:21.529Z,1.60
2023-01-03T23:20:29.923Z,1.17
2023-01-03T23:25:33.324Z,1.33
2023-01-03T23:30:36.034Z,1.90
2023-01-03T23:35:39.034Z,1.30
2023-01-03T23:40:42.017Z,1.25
2023-01-03T23:45:43.747Z,0.95
2023-01-03T23:50:45.439Z,1.00
2023-01-03T23:55:47.226Z,0.80
